createdAt,value
2022-11-18T00:00:12.100Z,10.50
2022-11-18T00:02:40.153Z,10.50
2022-11-18T00:05:09.794Z,10.50
2022-11-18T00:07:37.779Z,10.50
2022-11-18T00:10:06.348Z,10.40
2022-11-18T00:12:51.978Z,10.50
2022-11-18T00:15:19.895Z,10.40
2022-11-18T00:17:47.743Z,10.40
2022-11-18T00:20:17.299Z,10.40
2022-11-18T00:22:46.911Z,10.40
2022-11-18T00:25:14.884Z,10.40
2022-11-18T00:27:42.740Z,10.40
2022-11-18T00:30:12.368Z,10.40
2022-11-18T00:32:40.206Z,10.40
2022-11-18T00:35:08.920Z,10.40
2022-11-18T00:37:38.217Z,10.40
2022-11-18T00:40:07.090Z,10.50
2022-11-18T00:42:48.912Z,10.50
2022-11-18T00:45:16.880Z,10.40
2022-11-18T00:47:44.788Z,10.40
2022-11-18T00:50:13.120Z,10.40
2022-11-18T00:52:42.494Z,10.40
2022-11-18T00:55:10.941Z,10.40
2022-11-18T00:57:38.898Z,10.40
2022-11-18T01:00:08.031Z,10.40
2022-11-18T01:02:35.965Z,10.40
2022-11-18T01:05:03.931Z,10.40
2022-11-18T01:07:31.878Z,10.40
2022-11-18T01:10:01.360Z,10.40
2022-11-18T01:12:51.481Z,10.40
2022-11-18T01:15:22.007Z,10.40
2022-11-18T01:17:49.877Z,10.30
2022-11-18T01:20:17.799Z,10.30
2022-11-18T01:22:45.953Z,10.30
2022-11-18T01:25:15.154Z,10.30
2022-11-18T01:27:43.025Z,10.30
2022-11-18T01:30:11.699Z,10.30
2022-11-18T01:32:39.570Z,10.20
2022-11-18T01:35:08.334Z,10.30
2022-11-18T01:37:36.435Z,10.30
2022-11-18T01:40:05.188Z,10.30
2022-11-18T01:42:34.418Z,10.30
2022-11-18T01:45:09.743Z,10.20
2022-11-18T01:47:41.943Z,10.20
2022-11-18T01:50:10.733Z,10.20
2022-11-18T01:52:39.325Z,10.20
2022-11-18T01:55:13.201Z,10.20
2022-11-18T01:57:43.284Z,10.30
2022-11-18T02:00:12.787Z,10.30
2022-11-18T02:02:40.711Z,10.30
2022-11-18T02:05:12.059Z,10.30
2022-11-18T02:07:43.596Z,10.30
2022-11-18T02:10:19.774Z,10.30
2022-11-18T02:12:50.043Z,10.30
2022-11-18T02:15:18.695Z,10.30
2022-11-18T02:17:54.723Z,10.30
2022-11-18T02:20:31.214Z,10.40
2022-11-18T02:23:28.682Z,10.40
2022-11-18T02:26:38.739Z,10.40
2022-11-18T02:29:10.950Z,10.30
2022-11-18T02:31:47.928Z,10.30
2022-11-18T02:34:23.070Z,10.40
2022-11-18T02:36:56.362Z,10.30
2022-11-18T02:39:30.775Z,10.40
2022-11-18T02:42:01.696Z,10.40
2022-11-18T02:44:31.607Z,10.40
2022-11-18T02:47:06.318Z,10.40
2022-11-18T02:49:37.875Z,10.40
2022-11-18T02:52:07.233Z,10.40
2022-11-18T02:54:37.840Z,10.40
2022-11-18T02:57:06.318Z,10.40
2022-11-18T02:59:35.912Z,10.40
2022-11-18T03:02:03.808Z,10.40
2022-11-18T03:04:33.223Z,10.40
2022-11-18T03:07:11.104Z,10.40
2022-11-18T03:09:40.495Z,10.50
2022-11-18T03:12:16.545Z,10.50
2022-11-18T03:14:52.923Z,10.50
2022-11-18T03:17:26.751Z,10.50
2022-11-18T03:20:08.919Z,10.50
2022-11-18T03:22:41.569Z,10.50
2022-11-18T03:25:15.234Z,10.50
2022-11-18T03:27:49.645Z,10.50
2022-11-18T03:30:22.653Z,10.50
2022-11-18T03:32:54.432Z,10.50
2022-11-18T03:35:25.626Z,10.50
2022-11-18T03:38:00.027Z,10.50
2022-11-18T03:40:30.539Z,10.50
2022-11-18T03:43:04.360Z,10.50
2022-11-18T03:45:38.507Z,10.50
2022-11-18T03:48:09.493Z,10.50
2022-11-18T03:50:43.101Z,10.50
2022-11-18T03:53:13.193Z,10.50
2022-11-18T03:55:43.896Z,10.50
2022-11-18T03:58:18.004Z,10.50
2022-11-18T04:00:52.932Z,10.50
2022-11-18T04:03:21.053Z,10.50
2022-11-18T04:05:54.971Z,10.50
2022-11-18T04:08:27.557Z,10.60
2022-11-18T04:11:03.161Z,10.50
2022-11-18T04:13:34.352Z,10.50
2022-11-18T04:16:03.783Z,10.50
2022-11-18T04:18:31.656Z,10.50
2022-11-18T04:20:59.671Z,10.60
2022-11-18T04:23:27.582Z,10.60
2022-11-18T04:25:55.523Z,10.60
2022-11-18T04:28:23.429Z,10.60
2022-11-18T04:30:51.347Z,10.60
2022-11-18T04:33:20.565Z,10.60
2022-11-18T04:35:48.606Z,10.60
2022-11-18T04:38:20.685Z,10.60
2022-11-18T04:40:49.839Z,10.60
2022-11-18T04:43:17.742Z,10.60
2022-11-18T04:45:45.627Z,10.60
2022-11-18T04:48:13.462Z,10.60
2022-11-18T04:50:42.855Z,10.60
2022-11-18T04:53:10.726Z,10.50
2022-11-18T04:55:38.712Z,10.50
2022-11-18T04:58:06.619Z,10.50
2022-11-18T05:00:34.498Z,10.50
2022-11-18T05:03:02.415Z,10.50
2022-11-18T05:05:30.309Z,10.50
2022-11-18T05:07:59.532Z,10.40
2022-11-18T05:10:27.400Z,10.40
2022-11-18T05:12:54.300Z,10.40
2022-11-18T05:15:24.039Z,10.40
2022-11-18T05:17:52.041Z,10.40
2022-11-18T05:20:19.952Z,10.30
2022-11-18T05:22:47.817Z,10.30
2022-11-18T05:25:17.152Z,10.30
2022-11-18T05:27:45.001Z,10.30
2022-11-18T05:30:14.409Z,10.30
2022-11-18T05:32:42.356Z,10.20
2022-11-18T05:35:10.558Z,10.20
2022-11-18T05:37:38.432Z,10.20
2022-11-18T05:40:07.768Z,10.20
2022-11-18T05:42:54.669Z,10.10
2022-11-18T05:45:22.680Z,10.10
2022-11-18T05:48:04.667Z,10.10
2022-11-18T05:50:33.955Z,10.10
2022-11-18T05:53:02.518Z,10.10
2022-11-18T05:55:36.505Z,10.10
2022-11-18T05:58:05.759Z,10.00
2022-11-18T06:00:34.235Z,10.00
2022-11-18T06:03:02.556Z,10.00
2022-11-18T06:05:30.521Z,10.00
2022-11-18T06:07:59.421Z,10.00
2022-11-18T06:10:31.825Z,10.00
2022-11-18T06:13:03.991Z,10.00
2022-11-18T06:15:39.096Z,10.00
2022-11-18T06:18:12.712Z,10.00
2022-11-18T06:20:42.605Z,9.90
2022-11-18T06:23:10.492Z,9.90
2022-11-18T06:25:40.946Z,9.90
2022-11-18T06:28:11.591Z,9.90
2022-11-18T06:30:40.853Z,9.90
2022-11-18T06:33:09.145Z,9.90
2022-11-18T06:35:37.096Z,9.90
2022-11-18T06:38:05.277Z,9.80
2022-11-18T06:40:34.900Z,9.80
2022-11-18T06:43:24.703Z,9.80
2022-11-18T06:46:11.540Z,9.80
2022-11-18T06:48:39.474Z,9.80
2022-11-18T06:51:08.341Z,9.70
2022-11-18T06:53:36.501Z,9.70
2022-11-18T06:56:04.880Z,9.70
2022-11-18T06:58:32.967Z,9.70
2022-11-18T07:01:11.502Z,9.70
2022-11-18T07:03:39.552Z,9.70
2022-11-18T07:06:07.989Z,9.70
2022-11-18T07:08:37.236Z,9.70
2022-11-18T07:11:06.336Z,9.70
2022-11-18T07:13:36.974Z,9.70
2022-11-18T07:16:10.523Z,9.70
2022-11-18T07:18:40.053Z,9.70
2022-11-18T07:21:10.056Z,9.70
2022-11-18T07:23:37.964Z,9.70
2022-11-18T07:26:06.580Z,9.70
2022-11-18T07:28:34.527Z,9.70
2022-11-18T07:31:03.769Z,9.70
2022-11-18T07:33:33.854Z,9.70
2022-11-18T07:36:03.034Z,9.70
2022-11-18T07:38:30.946Z,9.70
2022-11-18T07:41:04.904Z,9.70
2022-11-18T07:43:33.627Z,9.70
2022-11-18T07:46:10.704Z,9.70
2022-11-18T07:48:39.998Z,9.70
2022-11-18T07:51:07.958Z,9.80
2022-11-18T07:53:37.114Z,9.80
2022-11-18T07:56:05.678Z,9.80
2022-11-18T07:58:33.825Z,9.80
2022-11-18T08:01:08.760Z,9.80
2022-11-18T08:03:36.859Z,9.80
2022-11-18T08:06:07.779Z,9.80
2022-11-18T08:08:36.101Z,9.90
2022-11-18T08:11:06.209Z,9.90
2022-11-18T08:13:34.845Z,9.90
2022-11-18T08:16:02.861Z,9.90
2022-11-18T08:18:31.652Z,10.00
2022-11-18T08:21:03.758Z,10.00
2022-11-18T08:23:38.882Z,10.00
2022-11-18T08:26:13.275Z,10.10
2022-11-18T08:28:41.424Z,10.10
2022-11-18T08:31:12.553Z,10.10
2022-11-18T08:33:40.784Z,10.10
2022-11-18T08:36:10.443Z,10.10
2022-11-18T08:38:39.679Z,10.10
2022-11-18T08:41:07.975Z,10.20
2022-11-18T08:43:36.705Z,10.20
2022-11-18T08:46:04.555Z,10.20
2022-11-18T08:48:32.419Z,10.20
2022-11-18T08:51:00.763Z,10.30
2022-11-18T08:53:28.837Z,10.30
2022-11-18T08:55:59.013Z,10.30
2022-11-18T08:58:27.748Z,10.40
2022-11-18T09:00:55.888Z,10.40
2022-11-18T09:03:24.522Z,10.40
2022-11-18T09:05:52.452Z,10.40
2022-11-18T09:08:22.241Z,10.40
2022-11-18T09:10:50.097Z,10.40
2022-11-18T09:13:47.534Z,10.40
2022-11-18T09:16:08.561Z,10.40
2022-11-18T09:18:37.308Z,10.40
2022-11-18T09:21:07.299Z,10.40
2022-11-18T09:23:37.563Z,10.40
2022-11-18T09:26:07.436Z,10.40
2022-11-18T09:28:37.552Z,10.40
2022-11-18T09:31:05.979Z,10.40
2022-11-18T09:33:34.843Z,10.40
2022-11-18T09:36:03.056Z,10.40
2022-11-18T09:38:31.476Z,10.40
2022-11-18T09:41:06.770Z,10.40
2022-11-18T09:43:45.032Z,10.40
2022-11-18T09:46:23.590Z,10.50
2022-11-18T09:49:14.859Z,10.50
2022-11-18T09:51:45.437Z,10.50
2022-11-18T09:54:23.571Z,10.60
2022-11-18T09:56:53.633Z,10.70
2022-11-18T09:59:26.504Z,10.70
2022-11-18T10:01:57.956Z,10.80
2022-11-18T10:04:25.941Z,10.90
2022-11-18T10:06:53.900Z,10.90
2022-11-18T10:09:29.138Z,11.00
2022-11-18T10:12:09.915Z,11.10
2022-11-18T10:14:55.106Z,11.10
2022-11-18T10:17:36.032Z,11.20
2022-11-18T10:20:18.532Z,11.30
2022-11-18T10:22:52.465Z,11.30
2022-11-18T10:25:20.712Z,11.30
2022-11-18T10:27:50.232Z,11.30
2022-11-18T10:30:22.123Z,11.40
2022-11-18T10:32:58.570Z,11.40
2022-11-18T10:35:29.668Z,11.40
2022-11-18T10:38:08.847Z,11.50
2022-11-18T10:40:41.229Z,11.50
2022-11-18T10:43:11.413Z,11.50
2022-11-18T10:45:41.166Z,11.60
2022-11-18T10:48:11.442Z,11.60
2022-11-18T10:50:41.331Z,11.70
2022-11-18T10:53:30.717Z,11.60
2022-11-18T10:56:00.607Z,11.60
2022-11-18T10:58:31.366Z,11.60
2022-11-18T11:01:08.456Z,11.60
2022-11-18T11:03:38.730Z,11.60
2022-11-18T11:06:32.393Z,11.70
2022-11-18T11:09:27.274Z,11.70
2022-11-18T11:12:02.025Z,11.70
2022-11-18T11:14:36.204Z,11.70
2022-11-18T11:17:07.987Z,11.60
2022-11-18T11:19:42.980Z,11.70
2022-11-18T11:22:13.070Z,11.70
2022-11-18T11:24:41.382Z,11.70
2022-11-18T11:30:19.309Z,11.90
2022-11-18T11:33:23.703Z,11.90
2022-11-18T11:36:02.560Z,11.90
2022-11-18T11:38:44.177Z,11.90
2022-11-18T11:41:21.066Z,12.00
2022-11-18T11:44:03.218Z,12.00
2022-11-18T11:46:41.128Z,12.10
2022-11-18T11:49:19.700Z,12.10
2022-11-18T11:51:53.302Z,12.10
2022-11-18T11:54:31.513Z,12.20
2022-11-18T11:57:05.059Z,12.20
2022-11-18T11:59:40.834Z,12.20
2022-11-18T12:02:41.219Z,12.30
2022-11-18T12:05:18.837Z,12.30
2022-11-18T12:07:50.814Z,12.40
2022-11-18T12:10:28.878Z,12.40
2022-11-18T12:13:10.361Z,12.40
2022-11-18T12:15:51.092Z,12.50
2022-11-18T12:18:26.060Z,12.50
2022-11-18T12:20:56.115Z,12.60
2022-11-18T12:23:26.384Z,12.50
2022-11-18T12:26:00.265Z,12.50
2022-11-18T12:28:31.517Z,12.50
2022-11-18T12:31:42.327Z,12.50
2022-11-18T12:34:33.733Z,12.50
2022-11-18T12:37:46.349Z,12.50
2022-11-18T12:40:35.013Z,12.40
2022-11-18T12:43:21.108Z,12.40
2022-11-18T12:45:53.751Z,12.40
2022-11-18T12:48:36.719Z,12.40
2022-11-18T12:51:48.814Z,12.40
2022-11-18T12:54:27.282Z,12.40
2022-11-18T12:56:59.397Z,12.40
2022-11-18T12:59:36.737Z,12.40
2022-11-18T13:02:23.689Z,12.40
2022-11-18T13:05:08.845Z,12.40
2022-11-18T13:08:02.233Z,12.40
2022-11-18T13:10:34.062Z,12.40
2022-11-18T13:13:03.948Z,12.30
2022-11-18T13:15:49.640Z,12.30
2022-11-18T13:18:20.079Z,12.30
2022-11-18T13:20:57.618Z,12.30
2022-11-18T13:23:46.793Z,12.30
2022-11-18T13:26:19.945Z,12.30
2022-11-18T13:29:02.168Z,12.30
2022-11-18T13:31:36.488Z,12.30
2022-11-18T13:34:05.282Z,12.20
2022-11-18T13:36:33.753Z,12.20
2022-11-18T13:39:04.283Z,12.20
2022-11-18T13:41:34.283Z,12.30
2022-11-18T13:44:17.088Z,12.30
2022-11-18T13:46:46.467Z,12.30
2022-11-18T13:49:18.837Z,12.30
2022-11-18T13:51:47.658Z,12.30
2022-11-18T13:54:22.046Z,12.30
2022-11-18T13:56:50.184Z,12.30
2022-11-18T13:59:21.949Z,12.30
2022-11-18T14:01:56.535Z,12.30
2022-11-18T14:04:26.648Z,12.30
2022-11-18T14:06:54.633Z,12.30
2022-11-18T14:09:26.296Z,12.30
2022-11-18T14:12:03.249Z,12.30
2022-11-18T14:14:34.996Z,12.20
2022-11-18T14:17:17.248Z,12.20
2022-11-18T14:19:45.705Z,12.20
2022-11-18T14:22:16.436Z,12.20
2022-11-18T14:24:45.214Z,12.20
2022-11-18T14:27:36.496Z,12.20
2022-11-18T14:30:32.363Z,12.20
2022-11-18T14:33:15.822Z,12.10
2022-11-18T14:35:45.824Z,12.10
2022-11-18T14:38:36.637Z,12.10
2022-11-18T14:41:07.793Z,12.10
2022-11-18T14:43:35.950Z,12.00
2022-11-18T14:46:07.517Z,12.00
2022-11-18T14:48:35.673Z,12.00
2022-11-18T14:51:03.548Z,12.00
2022-11-18T14:53:31.561Z,12.00
2022-11-18T14:56:01.426Z,12.00
2022-11-18T14:58:29.411Z,12.00
2022-11-18T15:00:57.405Z,12.00
2022-11-18T15:03:26.773Z,11.90
2022-11-18T15:05:54.650Z,11.90
2022-11-18T15:08:22.647Z,11.90
2022-11-18T15:10:50.591Z,11.90
2022-11-18T15:13:18.496Z,11.80
2022-11-18T15:15:46.424Z,11.80
2022-11-18T15:18:14.330Z,11.80
2022-11-18T15:20:43.563Z,11.80
2022-11-18T15:23:11.440Z,11.80
2022-11-18T15:25:39.447Z,11.80
2022-11-18T15:28:07.379Z,11.70
2022-11-18T15:30:35.258Z,11.70
2022-11-18T15:33:03.195Z,11.70
2022-11-18T15:35:31.129Z,11.70
2022-11-18T15:38:00.735Z,11.70
2022-11-18T15:40:28.636Z,11.80
2022-11-18T15:42:56.556Z,11.80
2022-11-18T15:45:24.475Z,12.00
2022-11-18T15:47:52.959Z,12.10
2022-11-18T15:50:20.832Z,12.20
2022-11-18T15:52:48.782Z,12.30
2022-11-18T15:55:18.284Z,12.40
2022-11-18T15:57:46.142Z,12.50
2022-11-18T16:00:15.695Z,12.60
2022-11-18T16:02:45.083Z,12.60
2022-11-18T16:05:13.488Z,12.60
2022-11-18T16:07:41.574Z,12.60
2022-11-18T16:10:28.789Z,12.60
2022-11-18T16:12:58.085Z,12.60
2022-11-18T16:15:44.414Z,12.50
2022-11-18T16:18:12.578Z,12.50
2022-11-18T16:20:40.495Z,12.40
2022-11-18T16:23:08.392Z,12.30
2022-11-18T16:25:36.399Z,12.20
2022-11-18T16:28:07.263Z,12.10
2022-11-18T16:30:53.871Z,12.10
2022-11-18T16:33:21.762Z,12.00
2022-11-18T16:35:50.202Z,11.90
2022-11-18T16:38:18.084Z,11.90
2022-11-18T16:40:45.950Z,11.80
2022-11-18T16:43:15.171Z,11.80
2022-11-18T16:45:51.712Z,11.70
2022-11-18T16:48:19.872Z,11.60
2022-11-18T16:50:56.332Z,11.60
2022-11-18T16:53:24.253Z,11.50
2022-11-18T16:55:52.097Z,11.50
2022-11-18T16:58:21.346Z,11.50
2022-11-18T17:01:17.745Z,11.50
2022-11-18T17:03:37.169Z,11.40
2022-11-18T17:06:05.839Z,11.40
2022-11-18T17:08:35.439Z,11.30
2022-11-18T17:11:10.485Z,11.30
2022-11-18T17:13:41.028Z,11.30
2022-11-18T17:16:10.555Z,11.30
2022-11-18T17:18:38.876Z,11.20
2022-11-18T17:21:08.652Z,11.20
2022-11-18T17:23:37.545Z,11.20
2022-11-18T17:26:06.786Z,11.20
2022-11-18T17:28:36.846Z,11.20
2022-11-18T17:31:10.424Z,11.20
2022-11-18T17:33:39.404Z,11.20
2022-11-18T17:36:09.853Z,11.10
2022-11-18T17:38:38.738Z,11.20
2022-11-18T17:41:07.991Z,11.10
2022-11-18T17:43:36.210Z,11.10
2022-11-18T17:46:05.949Z,11.10
2022-11-18T17:48:35.177Z,11.10
2022-11-18T17:51:07.050Z,11.10
2022-11-18T17:53:34.979Z,11.10
2022-11-18T17:56:04.251Z,11.00
2022-11-18T17:58:32.309Z,11.00
2022-11-18T18:01:08.807Z,11.00
2022-11-18T18:03:38.536Z,11.00
2022-11-18T18:06:07.679Z,10.90
2022-11-18T18:08:36.009Z,11.00
2022-11-18T18:11:04.679Z,10.90
2022-11-18T18:13:50.584Z,10.90
2022-11-18T18:16:21.919Z,10.90
2022-11-18T18:18:51.878Z,10.90
2022-11-18T18:21:20.350Z,10.90
2022-11-18T18:23:48.840Z,10.90
2022-11-18T18:26:16.704Z,10.90
2022-11-18T18:28:45.034Z,10.80
2022-11-18T18:31:15.729Z,10.80
2022-11-18T18:33:43.751Z,10.80
2022-11-18T18:36:15.156Z,10.80
2022-11-18T18:38:43.906Z,10.80
2022-11-18T18:41:16.498Z,10.80
2022-11-18T18:43:45.946Z,10.80
2022-11-18T18:46:32.354Z,10.80
2022-11-18T18:49:03.462Z,10.80
2022-11-18T18:51:36.141Z,10.80
2022-11-18T18:54:05.073Z,10.70
2022-11-18T18:56:34.151Z,10.70
2022-11-18T18:59:02.240Z,10.60
2022-11-18T19:01:35.447Z,10.60
2022-11-18T19:04:06.183Z,10.50
2022-11-18T19:06:58.914Z,10.50
2022-11-18T19:09:25.497Z,10.50
2022-11-18T19:12:12.030Z,10.40
2022-11-18T19:14:40.159Z,10.40
2022-11-18T19:17:12.589Z,10.40
2022-11-18T19:19:59.954Z,10.30
2022-11-18T19:22:30.197Z,10.30
2022-11-18T19:24:58.752Z,10.30
2022-11-18T19:27:27.197Z,10.30
2022-11-18T19:29:55.328Z,10.30
2022-11-18T19:32:23.268Z,10.20
2022-11-18T19:34:51.221Z,10.20
2022-11-18T19:37:19.150Z,10.20
2022-11-18T19:39:48.410Z,10.20
2022-11-18T19:42:16.261Z,10.10
2022-11-18T19:44:44.255Z,10.10
2022-11-18T19:47:12.120Z,10.00
2022-11-18T19:49:40.032Z,10.00
2022-11-18T19:52:07.952Z,10.00
2022-11-18T19:54:35.807Z,10.00
2022-11-18T19:57:05.006Z,10.00
2022-11-18T19:59:32.900Z,9.90
2022-11-18T20:02:01.224Z,9.90
2022-11-18T20:04:29.461Z,9.80
2022-11-18T20:06:57.776Z,9.80
2022-11-18T20:09:26.292Z,9.70
2022-11-18T20:11:54.197Z,9.60
2022-11-18T20:14:23.553Z,9.60
2022-11-18T20:16:52.610Z,9.50
2022-11-18T20:19:20.890Z,9.50
2022-11-18T20:21:49.550Z,9.40
2022-11-18T20:24:19.230Z,9.30
2022-11-18T20:26:47.816Z,9.20
2022-11-18T20:29:16.164Z,9.20
2022-11-18T20:31:45.721Z,9.10
2022-11-18T20:34:16.869Z,9.10
2022-11-18T20:36:46.473Z,9.00
2022-11-18T20:39:16.143Z,9.00
2022-11-18T20:42:04.491Z,8.90
2022-11-18T20:44:32.478Z,8.80
2022-11-18T20:47:01.713Z,8.80
2022-11-18T20:49:29.645Z,8.70
2022-11-18T20:51:57.532Z,8.60
2022-11-18T20:54:25.654Z,8.50
2022-11-18T20:56:53.658Z,8.50
2022-11-18T20:59:21.655Z,8.40
2022-11-18T21:01:49.939Z,8.40
2022-11-18T21:04:19.150Z,8.40
2022-11-18T21:06:47.441Z,8.30
2022-11-18T21:09:17.425Z,8.30
2022-11-18T21:11:45.523Z,8.30
2022-11-18T21:14:24.102Z,8.30
2022-11-18T21:16:53.649Z,8.30
2022-11-18T21:19:26.384Z,8.20
2022-11-18T21:21:55.295Z,8.20
2022-11-18T21:24:24.875Z,8.20
2022-11-18T21:26:54.839Z,8.20
2022-11-18T21:29:23.892Z,8.20
2022-11-18T21:31:52.961Z,8.30
2022-11-18T21:34:22.796Z,8.30
2022-11-18T21:36:54.543Z,8.30
2022-11-18T21:39:23.215Z,8.30
2022-11-18T21:41:55.770Z,8.20
2022-11-18T21:44:28.850Z,8.20
2022-11-18T21:46:57.225Z,8.20
2022-11-18T21:49:26.454Z,8.10
2022-11-18T21:51:54.395Z,8.00
2022-11-18T21:54:22.371Z,8.00
2022-11-18T21:56:50.253Z,7.90
2022-11-18T21:59:18.650Z,7.90
2022-11-18T22:01:46.973Z,7.80
2022-11-18T22:04:34.882Z,7.80
2022-11-18T22:07:05.289Z,7.70
2022-11-18T22:09:36.810Z,7.70
2022-11-18T22:12:06.727Z,7.70
2022-11-18T22:14:34.789Z,7.60
2022-11-18T22:17:02.728Z,7.60
2022-11-18T22:19:30.663Z,7.60
2022-11-18T22:22:01.162Z,7.60
2022-11-18T22:24:30.427Z,7.50
2022-11-18T22:26:58.676Z,7.50
2022-11-18T22:29:26.617Z,7.50
2022-11-18T22:31:54.551Z,7.50
2022-11-18T22:34:22.440Z,7.40
2022-11-18T22:36:50.449Z,7.40
2022-11-18T22:39:18.847Z,7.30
2022-11-18T22:42:06.431Z,7.30
2022-11-18T22:44:34.289Z,7.30
2022-11-18T22:47:02.139Z,7.20
2022-11-18T22:49:30.023Z,7.20
2022-11-18T22:51:57.963Z,7.20
2022-11-18T22:54:41.214Z,7.20
2022-11-18T22:57:10.502Z,7.20
2022-11-18T22:59:38.476Z,7.20
2022-11-18T23:02:06.849Z,7.10
2022-11-18T23:04:34.767Z,7.10
2022-11-18T23:07:02.750Z,7.10
2022-11-18T23:09:30.708Z,7.00
2022-11-18T23:12:16.079Z,7.00
2022-11-18T23:14:45.269Z,7.00
2022-11-18T23:17:13.393Z,6.90
2022-11-18T23:19:43.779Z,6.90
2022-11-18T23:22:12.264Z,7.00
2022-11-18T23:24:40.159Z,6.90
2022-11-18T23:27:08.142Z,7.00
2022-11-18T23:29:36.940Z,7.00
2022-11-18T23:32:06.259Z,7.00
2022-11-18T23:34:34.315Z,7.00
2022-11-18T23:37:02.151Z,7.00
2022-11-18T23:39:30.102Z,7.00
2022-11-18T23:41:58.058Z,7.00
2022-11-18T23:44:39.855Z,7.00
2022-11-18T23:47:09.164Z,7.00
2022-11-18T23:49:37.030Z,7.00
2022-11-18T23:52:05.169Z,7.00
2022-11-18T23:54:33.158Z,6.90
2022-11-18T23:57:01.135Z,6.90
2022-11-18T23:59:29.027Z,6.90
